sensor_id;sensor_type;location;lat;lon;timestamp;pressure;altitude;pressure_sealevel;temperature;humidity
11912;BME280;6016;41.928;25.556;2023-01-25T00:00:04;100511.31;;;5.71;68.70
11912;BME280;6016;41.928;25.556;2023-01-25T00:02:31;100483.19;;;5.38;67.52
11912;BME280;6016;41.928;25.556;2023-01-25T00:04:58;100471.78;;;5.58;67.60
11912;BME280;6016;41.928;25.556;2023-01-25T00:07:26;100484.53;;;5.47;65.48
11912;BME280;6016;41.928;25.556;2023-01-25T00:09:53;100505.22;;;5.71;65.66
11912;BME280;6016;41.928;25.556;2023-01-25T00:12:20;100313.22;;;4.44;66.88
11912;BME280;6016;41.928;25.556;2023-01-25T00:14:47;100239.16;;;4.06;67.67
11912;BME280;6016;41.928;25.556;2023-01-25T00:17:13;100553.59;;;6.00;67.85
11912;BME280;6016;41.928;25.556;2023-01-25T00:19:40;100489.13;;;5.61;69.08
11912;BME280;6016;41.928;25.556;2023-01-25T00:22:07;100375.84;;;4.84;67.86
11912;BME280;6016;41.928;25.556;2023-01-25T00:24:35;100378.34;;;4.87;67.88
11912;BME280;6016;41.928;25.556;2023-01-25T00:27:02;100559.69;;;6.01;68.23
11912;BME280;6016;41.928;25.556;2023-01-25T00:29:29;100544.78;;;5.65;67.74
11912;BME280;6016;41.928;25.556;2023-01-25T00:32:06;100543.78;;;5.67;67.53
11912;BME280;6016;41.928;25.556;2023-01-25T00:34:51;100564.69;;;5.86;68.08
11912;BME280;6016;41.928;25.556;2023-01-25T00:37:23;100511.13;;;5.38;67.06
11912;BME280;6016;41.928;25.556;2023-01-25T00:39:51;100564.16;;;5.80;68.62
11912;BME280;6016;41.928;25.556;2023-01-25T00:42:19;100542.28;;;5.61;67.42
11912;BME280;6016;41.928;25.556;2023-01-25T00:44:46;100489.75;;;5.28;68.06
11912;BME280;6016;41.928;25.556;2023-01-25T00:47:14;100565.16;;;5.77;67.19
11912;BME280;6016;41.928;25.556;2023-01-25T00:49:42;100513.09;;;5.52;66.93
11912;BME280;6016;41.928;25.556;2023-01-25T00:52:10;100563.69;;;5.71;67.15
11912;BME280;6016;41.928;25.556;2023-01-25T00:54:37;100561.28;;;5.67;68.44
11912;BME280;6016;41.928;25.556;2023-01-25T00:57:06;100564.34;;;5.75;68.26
11912;BME280;6016;41.928;25.556;2023-01-25T00:59:33;100569.31;;;5.81;69.02
11912;BME280;6016;41.928;25.556;2023-01-25T01:02:00;100577.94;;;5.83;68.27
11912;BME280;6016;41.928;25.556;2023-01-25T01:04:27;100362.19;;;4.58;68.59
11912;BME280;6016;41.928;25.556;2023-01-25T01:06:54;100569.25;;;5.83;65.93
11912;BME280;6016;41.928;25.556;2023-01-25T01:09:22;100570.75;;;5.88;68.87
11912;BME280;6016;41.928;25.556;2023-01-25T01:11:49;100572.72;;;5.83;69.31
11912;BME280;6016;41.928;25.556;2023-01-25T01:14:17;100486.16;;;5.11;67.76
11912;BME280;6016;41.928;25.556;2023-01-25T01:16:45;100571.75;;;5.67;69.02
11912;BME280;6016;41.928;25.556;2023-01-25T01:19:12;100507.25;;;5.27;67.98
11912;BME280;6016;41.928;25.556;2023-01-25T01:21:39;100574.16;;;5.71;68.61
11912;BME280;6016;41.928;25.556;2023-01-25T01:24:07;100576.47;;;5.58;67.38
11912;BME280;6016;41.928;25.556;2023-01-25T01:26:34;100530.22;;;5.59;68.64
11912;BME280;6016;41.928;25.556;2023-01-25T01:29:01;100564.84;;;5.83;69.22
11912;BME280;6016;41.928;25.556;2023-01-25T01:31:29;100542.94;;;5.67;67.21
11912;BME280;6016;41.928;25.556;2023-01-25T01:33:56;100526.03;;;5.35;67.60
11912;BME280;6016;41.928;25.556;2023-01-25T01:36:25;100465.59;;;5.23;67.31
11912;BME280;6016;41.928;25.556;2023-01-25T01:38:52;100559.22;;;5.73;67.59
11912;BME280;6016;41.928;25.556;2023-01-25T01:41:19;100531.06;;;5.59;68.85
11912;BME280;6016;41.928;25.556;2023-01-25T01:43:46;100298.53;;;4.01;68.59
11912;BME280;6016;41.928;25.556;2023-01-25T01:46:15;100498.25;;;5.33;68.31
11912;BME280;6016;41.928;25.556;2023-01-25T01:48:48;100520.69;;;5.39;67.64
11912;BME280;6016;41.928;25.556;2023-01-25T01:51:20;100494.00;;;5.30;68.76
11912;BME280;6016;41.928;25.556;2023-01-25T01:53:50;100542.72;;;5.71;69.20
11912;BME280;6016;41.928;25.556;2023-01-25T01:56:22;100522.78;;;5.49;67.20
11912;BME280;6016;41.928;25.556;2023-01-25T01:58:52;100545.94;;;5.59;68.07
11912;BME280;6016;41.928;25.556;2023-01-25T02:01:20;100546.13;;;5.54;68.80
11912;BME280;6016;41.928;25.556;2023-01-25T02:03:49;100550.88;;;5.46;67.98
11912;BME280;6016;41.928;25.556;2023-01-25T02:06:25;100506.78;;;5.37;68.42
11912;BME280;6016;41.928;25.556;2023-01-25T02:08:53;100539.78;;;5.60;67.48
11912;BME280;6016;41.928;25.556;2023-01-25T02:11:21;100440.47;;;4.99;68.09
11912;BME280;6016;41.928;25.556;2023-01-25T02:13:47;100369.47;;;4.70;67.05
11912;BME280;6016;41.928;25.556;2023-01-25T02:16:16;100555.38;;;5.61;66.78
11912;BME280;6016;41.928;25.556;2023-01-25T02:18:45;100541.25;;;5.66;66.07
11912;BME280;6016;41.928;25.556;2023-01-25T02:21:14;100460.38;;;5.03;65.48
11912;BME280;6016;41.928;25.556;2023-01-25T02:23:46;100545.94;;;5.40;66.06
11912;BME280;6016;41.928;25.556;2023-01-25T02:26:16;100544.28;;;5.37;67.04
11912;BME280;6016;41.928;25.556;2023-01-25T02:28:47;100520.69;;;5.19;65.70
11912;BME280;6016;41.928;25.556;2023-01-25T02:31:15;100530.63;;;5.11;65.58
11912;BME280;6016;41.928;25.556;2023-01-25T02:33:43;100542.22;;;5.25;66.02
11912;BME280;6016;41.928;25.556;2023-01-25T02:36:20;100527.50;;;5.03;65.98
11912;BME280;6016;41.928;25.556;2023-01-25T02:38:51;100539.91;;;5.18;66.94
11912;BME280;6016;41.928;25.556;2023-01-25T02:41:24;100545.13;;;5.18;65.79
11912;BME280;6016;41.928;25.556;2023-01-25T02:43:53;100543.75;;;5.10;68.25
11912;BME280;6016;41.928;25.556;2023-01-25T02:46:23;100537.75;;;5.07;66.46
11912;BME280;6016;41.928;25.556;2023-01-25T02:48:52;100551.41;;;5.14;66.44
11912;BME280;6016;41.928;25.556;2023-01-25T02:51:20;100486.88;;;4.96;68.65
11912;BME280;6016;41.928;25.556;2023-01-25T02:53:47;100539.75;;;5.21;65.67
11912;BME280;6016;41.928;25.556;2023-01-25T02:56:14;100536.28;;;5.21;67.55
11912;BME280;6016;41.928;25.556;2023-01-25T02:58:42;100536.66;;;5.32;68.31
11912;BME280;6016;41.928;25.556;2023-01-25T03:01:10;100432.34;;;4.67;66.11
11912;BME280;6016;41.928;25.556;2023-01-25T03:03:37;100537.78;;;5.27;67.95
11912;BME280;6016;41.928;25.556;2023-01-25T03:06:05;100535.25;;;5.25;68.38
11912;BME280;6016;41.928;25.556;2023-01-25T03:08:32;100535.09;;;5.28;67.88
11912;BME280;6016;41.928;25.556;2023-01-25T03:11:01;100542.44;;;5.20;65.26
11912;BME280;6016;41.928;25.556;2023-01-25T03:13:29;100466.72;;;4.58;66.28
11912;BME280;6016;41.928;25.556;2023-01-25T03:16:00;100527.50;;;5.03;70.52
11912;BME280;6016;41.928;25.556;2023-01-25T03:18:27;100529.13;;;5.05;67.42
11912;BME280;6016;41.928;25.556;2023-01-25T03:20:54;100507.91;;;4.92;68.03
11912;BME280;6016;41.928;25.556;2023-01-25T03:23:21;100534.50;;;5.02;68.08
11912;BME280;6016;41.928;25.556;2023-01-25T03:25:48;100530.06;;;5.04;67.13
11912;BME280;6016;41.928;25.556;2023-01-25T03:28:15;100422.34;;;4.37;67.11
11912;BME280;6016;41.928;25.556;2023-01-25T03:30:42;100533.25;;;5.11;68.88
11912;BME280;6016;41.928;25.556;2023-01-25T03:33:10;100532.38;;;5.11;66.18
11912;BME280;6016;41.928;25.556;2023-01-25T03:35:37;100465.81;;;4.59;67.63
11912;BME280;6016;41.928;25.556;2023-01-25T03:38:04;100507.50;;;5.02;71.32
11912;BME280;6016;41.928;25.556;2023-01-25T03:40:31;100523.59;;;5.12;68.38
11912;BME280;6016;41.928;25.556;2023-01-25T03:42:58;100535.22;;;5.06;67.07
11912;BME280;6016;41.928;25.556;2023-01-25T03:45:24;100536.84;;;5.09;67.57
11912;BME280;6016;41.928;25.556;2023-01-25T03:47:51;100541.81;;;5.15;66.20
11912;BME280;6016;41.928;25.556;2023-01-25T03:50:19;100537.19;;;5.20;67.11
11912;BME280;6016;41.928;25.556;2023-01-25T03:53:07;100534.69;;;5.18;66.74
11912;BME280;6016;41.928;25.556;2023-01-25T03:55:51;100542.38;;;5.21;67.19
11912;BME280;6016;41.928;25.556;2023-01-25T03:58:18;100531.63;;;5.28;66.92
11912;BME280;6016;41.928;25.556;2023-01-25T04:00:44;100542.03;;;5.29;67.93
11912;BME280;6016;41.928;25.556;2023-01-25T04:03:11;100540.44;;;5.06;65.38
11912;BME280;6016;41.928;25.556;2023-01-25T04:05:39;100538.97;;;5.00;67.09
11912;BME280;6016;41.928;25.556;2023-01-25T04:08:06;100256.13;;;3.35;67.57
11912;BME280;6016;41.928;25.556;2023-01-25T04:10:33;100470.41;;;4.93;68.06
11912;BME280;6016;41.928;25.556;2023-01-25T04:13:00;100455.88;;;4.67;68.35
11912;BME280;6016;41.928;25.556;2023-01-25T04:15:27;100537.94;;;5.03;68.08
11912;BME280;6016;41.928;25.556;2023-01-25T04:17:53;100450.34;;;4.73;72.18
11912;BME280;6016;41.928;25.556;2023-01-25T04:20:20;100459.50;;;4.84;72.01
11912;BME280;6016;41.928;25.556;2023-01-25T04:22:49;100544.19;;;5.00;69.94
11912;BME280;6016;41.928;25.556;2023-01-25T04:25:16;100474.00;;;4.91;66.81
11912;BME280;6016;41.928;25.556;2023-01-25T04:27:42;100507.66;;;5.18;66.87
11912;BME280;6016;41.928;25.556;2023-01-25T04:30:10;100542.56;;;5.17;65.17
11912;BME280;6016;41.928;25.556;2023-01-25T04:32:37;100499.41;;;4.87;68.30
11912;BME280;6016;41.928;25.556;2023-01-25T04:35:04;100547.22;;;5.10;68.33
11912;BME280;6016;41.928;25.556;2023-01-25T04:37:31;100402.63;;;4.30;66.63
11912;BME280;6016;41.928;25.556;2023-01-25T04:39:59;100507.97;;;4.91;68.04
11912;BME280;6016;41.928;25.556;2023-01-25T04:42:26;100539.41;;;5.29;70.41
11912;BME280;6016;41.928;25.556;2023-01-25T04:44:53;100509.69;;;4.71;67.00
11912;BME280;6016;41.928;25.556;2023-01-25T04:47:20;100512.69;;;4.83;68.37
11912;BME280;6016;41.928;25.556;2023-01-25T04:49:46;100534.34;;;5.05;69.45
11912;BME280;6016;41.928;25.556;2023-01-25T04:52:13;100556.50;;;5.17;66.59
11912;BME280;6016;41.928;25.556;2023-01-25T04:54:40;100533.44;;;5.06;66.27
11912;BME280;6016;41.928;25.556;2023-01-25T04:57:08;100557.66;;;5.31;65.88
11912;BME280;6016;41.928;25.556;2023-01-25T04:59:37;100514.41;;;5.03;67.36
11912;BME280;6016;41.928;25.556;2023-01-25T05:02:04;100576.81;;;5.31;66.73
11912;BME280;6016;41.928;25.556;2023-01-25T05:04:31;100568.41;;;5.44;66.33
11912;BME280;6016;41.928;25.556;2023-01-25T05:06:57;100565.41;;;5.32;66.91
11912;BME280;6016;41.928;25.556;2023-01-25T05:09:24;100566.13;;;5.36;67.12
11912;BME280;6016;41.928;25.556;2023-01-25T05:11:51;100375.69;;;4.08;66.87
11912;BME280;6016;41.928;25.556;2023-01-25T05:14:19;100511.75;;;5.04;66.56
11912;BME280;6016;41.928;25.556;2023-01-25T05:16:46;100502.59;;;4.94;65.94
11912;BME280;6016;41.928;25.556;2023-01-25T05:19:13;100473.28;;;4.87;66.67
11912;BME280;6016;41.928;25.556;2023-01-25T05:21:39;100562.09;;;5.48;67.72
11912;BME280;6016;41.928;25.556;2023-01-25T05:24:25;100562.75;;;5.53;67.12
11912;BME280;6016;41.928;25.556;2023-01-25T05:26:52;100559.38;;;5.51;65.54
11912;BME280;6016;41.928;25.556;2023-01-25T05:29:31;100553.47;;;5.27;66.24
11912;BME280;6016;41.928;25.556;2023-01-25T05:32:00;100566.91;;;5.38;66.19
11912;BME280;6016;41.928;25.556;2023-01-25T05:34:27;100519.66;;;5.22;68.05
11912;BME280;6016;41.928;25.556;2023-01-25T05:36:54;100567.28;;;5.49;65.46
11912;BME280;6016;41.928;25.556;2023-01-25T05:39:20;100573.78;;;5.41;65.07
11912;BME280;6016;41.928;25.556;2023-01-25T05:41:47;100536.22;;;5.23;65.24
11912;BME280;6016;41.928;25.556;2023-01-25T05:44:14;100575.88;;;5.32;65.58
11912;BME280;6016;41.928;25.556;2023-01-25T05:46:43;100576.66;;;5.34;65.99
11912;BME280;6016;41.928;25.556;2023-01-25T05:49:10;100577.66;;;5.32;65.33
11912;BME280;6016;41.928;25.556;2023-01-25T05:51:37;100579.28;;;5.34;65.83
11912;BME280;6016;41.928;25.556;2023-01-25T05:54:04;100573.41;;;5.29;66.33
11912;BME280;6016;41.928;25.556;2023-01-25T05:56:32;100552.88;;;5.01;65.67
11912;BME280;6016;41.928;25.556;2023-01-25T05:58:59;100574.78;;;5.17;67.18
11912;BME280;6016;41.928;25.556;2023-01-25T06:01:27;100529.56;;;4.75;67.16
11912;BME280;6016;41.928;25.556;2023-01-25T06:03:56;100544.50;;;4.92;73.10
11912;BME280;6016;41.928;25.556;2023-01-25T06:06:23;100570.22;;;5.23;68.47
11912;BME280;6016;41.928;25.556;2023-01-25T06:08:50;100488.75;;;4.92;67.73
11912;BME280;6016;41.928;25.556;2023-01-25T06:11:19;100568.63;;;5.39;65.33
11912;BME280;6016;41.928;25.556;2023-01-25T06:13:46;100571.16;;;5.41;65.35
11912;BME280;6016;41.928;25.556;2023-01-25T06:16:13;100565.78;;;5.44;64.95
11912;BME280;6016;41.928;25.556;2023-01-25T06:18:41;100502.97;;;5.05;67.08
11912;BME280;6016;41.928;25.556;2023-01-25T06:21:10;100563.31;;;5.41;65.92
11912;BME280;6016;41.928;25.556;2023-01-25T06:23:37;100562.59;;;5.37;66.44
11912;BME280;6016;41.928;25.556;2023-01-25T06:26:06;100562.44;;;5.21;67.04
11912;BME280;6016;41.928;25.556;2023-01-25T06:28:35;100543.56;;;5.14;66.50
11912;BME280;6016;41.928;25.556;2023-01-25T06:31:04;100569.09;;;5.28;66.65
11912;BME280;6016;41.928;25.556;2023-01-25T06:33:31;100551.91;;;5.23;65.89
11912;BME280;6016;41.928;25.556;2023-01-25T06:35:59;100555.88;;;5.31;66.20
11912;BME280;6016;41.928;25.556;2023-01-25T06:38:28;100546.28;;;5.32;65.46
11912;BME280;6016;41.928;25.556;2023-01-25T06:40:58;100577.53;;;5.54;66.38
11912;BME280;6016;41.928;25.556;2023-01-25T06:43:25;100529.50;;;5.17;64.56
11912;BME280;6016;41.928;25.556;2023-01-25T06:45:56;100529.13;;;5.05;64.30
11912;BME280;6016;41.928;25.556;2023-01-25T06:48:23;100596.56;;;5.39;66.54
11912;BME280;6016;41.928;25.556;2023-01-25T06:50:53;100580.38;;;5.49;66.18
11912;BME280;6016;41.928;25.556;2023-01-25T06:53:20;100402.34;;;4.36;66.49
11912;BME280;6016;41.928;25.556;2023-01-25T06:55:55;100524.53;;;5.11;65.00
11912;BME280;6016;41.928;25.556;2023-01-25T06:58:22;100514.00;;;5.12;65.62
11912;BME280;6016;41.928;25.556;2023-01-25T07:00:49;100562.09;;;5.29;65.17
11912;BME280;6016;41.928;25.556;2023-01-25T07:03:17;100574.16;;;5.52;65.94
11912;BME280;6016;41.928;25.556;2023-01-25T07:05:43;100577.41;;;5.57;64.93
11912;BME280;6016;41.928;25.556;2023-01-25T07:08:10;100579.22;;;5.55;65.46
11912;BME280;6016;41.928;25.556;2023-01-25T07:10:37;100576.69;;;5.54;66.22
11912;BME280;6016;41.928;25.556;2023-01-25T07:13:05;100564.84;;;5.26;64.86
11912;BME280;6016;41.928;25.556;2023-01-25T07:15:32;100584.81;;;5.47;64.97
11912;BME280;6016;41.928;25.556;2023-01-25T07:17:59;100562.81;;;5.32;64.81
11912;BME280;6016;41.928;25.556;2023-01-25T07:20:26;100573.69;;;5.61;65.38
11912;BME280;6016;41.928;25.556;2023-01-25T07:22:53;100557.88;;;5.45;68.29
11912;BME280;6016;41.928;25.556;2023-01-25T07:25:20;100549.88;;;5.29;62.91
11912;BME280;6016;41.928;25.556;2023-01-25T07:27:46;100581.44;;;5.45;63.12
11912;BME280;6016;41.928;25.556;2023-01-25T07:30:16;100581.22;;;5.31;63.32
11912;BME280;6016;41.928;25.556;2023-01-25T07:32:46;100588.63;;;5.40;65.34
11912;BME280;6016;41.928;25.556;2023-01-25T07:35:12;100590.47;;;5.38;65.29
11912;BME280;6016;41.928;25.556;2023-01-25T07:37:39;100506.81;;;4.77;61.92
11912;BME280;6016;41.928;25.556;2023-01-25T07:40:07;100584.03;;;5.26;62.77
11912;BME280;6016;41.928;25.556;2023-01-25T07:42:34;100497.50;;;4.72;66.37
11912;BME280;6016;41.928;25.556;2023-01-25T07:45:00;100590.13;;;5.46;64.31
11912;BME280;6016;41.928;25.556;2023-01-25T07:47:29;100558.31;;;5.15;63.48
11912;BME280;6016;41.928;25.556;2023-01-25T07:49:56;100595.13;;;5.31;62.25
11912;BME280;6016;41.928;25.556;2023-01-25T07:52:22;100543.97;;;5.05;63.80
11912;BME280;6016;41.928;25.556;2023-01-25T07:54:49;100597.78;;;5.30;63.17
11912;BME280;6016;41.928;25.556;2023-01-25T07:57:16;100397.41;;;4.09;65.79
11912;BME280;6016;41.928;25.556;2023-01-25T07:59:44;100572.28;;;5.16;62.24
11912;BME280;6016;41.928;25.556;2023-01-25T08:02:11;100590.66;;;5.33;63.05
11912;BME280;6016;41.928;25.556;2023-01-25T08:04:39;100557.94;;;5.04;62.00
11912;BME280;6016;41.928;25.556;2023-01-25T08:07:06;100598.72;;;5.29;60.54
11912;BME280;6016;41.928;25.556;2023-01-25T08:09:33;100606.41;;;5.13;60.14
11912;BME280;6016;41.928;25.556;2023-01-25T08:12:00;100541.78;;;4.75;62.25
11912;BME280;6016;41.928;25.556;2023-01-25T08:14:27;100596.84;;;5.12;61.63
11912;BME280;6016;41.928;25.556;2023-01-25T08:16:54;100594.69;;;5.21;62.36
11912;BME280;6016;41.928;25.556;2023-01-25T08:19:21;100500.63;;;4.59;63.94
11912;BME280;6016;41.928;25.556;2023-01-25T08:21:51;100599.19;;;5.39;61.44
11912;BME280;6016;41.928;25.556;2023-01-25T08:24:17;100596.75;;;5.34;61.48
11912;BME280;6016;41.928;25.556;2023-01-25T08:26:44;100512.25;;;4.73;63.95
11912;BME280;6016;41.928;25.556;2023-01-25T08:29:11;100593.78;;;5.42;63.41
11912;BME280;6016;41.928;25.556;2023-01-25T08:31:40;100592.16;;;5.58;63.70
11912;BME280;6016;41.928;25.556;2023-01-25T08:34:08;100504.97;;;5.19;62.63
11912;BME280;6016;41.928;25.556;2023-01-25T08:36:35;100583.97;;;5.66;64.42
11912;BME280;6016;41.928;25.556;2023-01-25T08:39:06;100419.25;;;4.88;60.52
11912;BME280;6016;41.928;25.556;2023-01-25T08:41:34;100546.13;;;5.73;60.45
11912;BME280;6016;41.928;25.556;2023-01-25T08:44:01;100586.69;;;6.03;63.45
11912;BME280;6016;41.928;25.556;2023-01-25T08:46:30;100549.88;;;5.68;62.70
11912;BME280;6016;41.928;25.556;2023-01-25T08:48:58;100590.06;;;5.86;61.49
11912;BME280;6016;41.928;25.556;2023-01-25T08:51:26;100546.41;;;5.67;64.22
11912;BME280;6016;41.928;25.556;2023-01-25T08:53:53;100582.13;;;6.07;61.90
11912;BME280;6016;41.928;25.556;2023-01-25T08:56:25;100583.75;;;6.09;62.75
11912;BME280;6016;41.928;25.556;2023-01-25T08:58:52;100585.00;;;6.19;60.80
11912;BME280;6016;41.928;25.556;2023-01-25T09:01:20;100516.53;;;5.90;60.74
11912;BME280;6016;41.928;25.556;2023-01-25T09:03:49;100461.13;;;5.25;64.92
11912;BME280;6016;41.928;25.556;2023-01-25T09:06:17;100579.16;;;5.95;61.64
11912;BME280;6016;41.928;25.556;2023-01-25T09:08:45;100547.63;;;5.97;62.77
11912;BME280;6016;41.928;25.556;2023-01-25T09:11:20;100575.66;;;6.14;61.50
11912;BME280;6016;41.928;25.556;2023-01-25T09:13:49;100495.25;;;5.79;62.48
11912;BME280;6016;41.928;25.556;2023-01-25T09:16:18;100549.19;;;6.20;62.09
11912;BME280;6016;41.928;25.556;2023-01-25T09:18:52;100561.91;;;6.28;64.09
11912;BME280;6016;41.928;25.556;2023-01-25T09:21:18;100554.50;;;6.36;60.39
11912;BME280;6016;41.928;25.556;2023-01-25T09:23:47;100478.97;;;5.72;60.78
11912;BME280;6016;41.928;25.556;2023-01-25T09:26:15;100547.34;;;6.40;63.34
11912;BME280;6016;41.928;25.556;2023-01-25T09:28:45;100470.91;;;5.95;59.08
11912;BME280;6016;41.928;25.556;2023-01-25T09:31:15;100495.88;;;6.21;60.85
11912;BME280;6016;41.928;25.556;2023-01-25T09:33:42;100513.59;;;6.33;61.18
11912;BME280;6016;41.928;25.556;2023-01-25T09:36:09;100509.56;;;6.09;59.95
11912;BME280;6016;41.928;25.556;2023-01-25T09:38:36;100433.22;;;5.62;62.05
11912;BME280;6016;41.928;25.556;2023-01-25T09:41:29;100504.34;;;5.89;60.80
11912;BME280;6016;41.928;25.556;2023-01-25T09:44:10;100495.63;;;6.08;61.15
11912;BME280;6016;41.928;25.556;2023-01-25T09:46:44;100505.97;;;6.29;62.31
11912;BME280;6016;41.928;25.556;2023-01-25T09:49:34;100507.03;;;6.07;60.15
11912;BME280;6016;41.928;25.556;2023-01-25T09:52:34;100483.03;;;5.97;61.30
11912;BME280;6016;41.928;25.556;2023-01-25T09:55:11;100481.41;;;5.95;58.73
11912;BME280;6016;41.928;25.556;2023-01-25T09:57:40;100508.78;;;6.07;58.58
11912;BME280;6016;41.928;25.556;2023-01-25T10:00:15;100508.78;;;6.07;60.15
11912;BME280;6016;41.928;25.556;2023-01-25T10:02:48;100463.06;;;5.77;62.05
11912;BME280;6016;41.928;25.556;2023-01-25T10:05:21;100477.63;;;5.83;61.16
11912;BME280;6016;41.928;25.556;2023-01-25T10:07:56;100492.78;;;6.13;59.88
11912;BME280;6016;41.928;25.556;2023-01-25T10:10:29;100483.53;;;6.23;61.87
11912;BME280;6016;41.928;25.556;2023-01-25T10:12:59;100485.63;;;6.16;60.19
11912;BME280;6016;41.928;25.556;2023-01-25T10:15:29;100480.81;;;6.07;59.54
11912;BME280;6016;41.928;25.556;2023-01-25T10:18:03;100469.16;;;5.95;60.73
11912;BME280;6016;41.928;25.556;2023-01-25T10:20:37;100460.66;;;5.72;61.39
11912;BME280;6016;41.928;25.556;2023-01-25T10:23:29;100440.09;;;5.82;60.63
11912;BME280;6016;41.928;25.556;2023-01-25T10:26:00;100444.50;;;5.82;61.29
11912;BME280;6016;41.928;25.556;2023-01-25T10:28:38;100460.66;;;5.90;61.85
11912;BME280;6016;41.928;25.556;2023-01-25T10:31:13;100452.88;;;5.71;61.83
11912;BME280;6016;41.928;25.556;2023-01-25T10:33:45;100426.69;;;5.53;62.54
11912;BME280;6016;41.928;25.556;2023-01-25T10:36:13;100447.13;;;5.82;62.39
11912;BME280;6016;41.928;25.556;2023-01-25T10:38:42;100399.03;;;5.65;64.84
11912;BME280;6016;41.928;25.556;2023-01-25T10:41:14;100414.53;;;5.87;63.47
11912;BME280;6016;41.928;25.556;2023-01-25T10:43:43;100433.38;;;6.13;59.48
11912;BME280;6016;41.928;25.556;2023-01-25T10:46:18;100381.88;;;5.95;61.99
11912;BME280;6016;41.928;25.556;2023-01-25T10:48:48;100435.63;;;6.21;59.12
11912;BME280;6016;41.928;25.556;2023-01-25T10:51:32;100354.63;;;5.81;61.04
11912;BME280;6016;41.928;25.556;2023-01-25T10:54:04;100403.06;;;6.25;61.13
11912;BME280;6016;41.928;25.556;2023-01-25T10:56:34;100422.53;;;6.55;62.24
11912;BME280;6016;41.928;25.556;2023-01-25T10:59:07;100389.22;;;6.23;58.45
11912;BME280;6016;41.928;25.556;2023-01-25T11:01:41;100411.25;;;6.19;59.94
11912;BME280;6016;41.928;25.556;2023-01-25T11:04:26;100289.84;;;5.51;63.75
11912;BME280;6016;41.928;25.556;2023-01-25T11:06:54;100378.88;;;5.67;62.82
11912;BME280;6016;41.928;25.556;2023-01-25T11:09:36;100407.84;;;6.17;61.55
11912;BME280;6016;41.928;25.556;2023-01-25T11:12:14;100339.69;;;5.83;61.94
11912;BME280;6016;41.928;25.556;2023-01-25T11:14:49;100357.16;;;6.00;62.52
11912;BME280;6016;41.928;25.556;2023-01-25T11:17:24;100403.16;;;6.24;61.39
11912;BME280;6016;41.928;25.556;2023-01-25T11:20:15;100404.31;;;6.18;61.12
11912;BME280;6016;41.928;25.556;2023-01-25T11:22:51;100336.13;;;5.84;60.23
11912;BME280;6016;41.928;25.556;2023-01-25T11:25:29;100369.41;;;6.17;63.81
11912;BME280;6016;41.928;25.556;2023-01-25T11:28:19;100389.50;;;6.35;59.82
11912;BME280;6016;41.928;25.556;2023-01-25T11:30:48;100383.63;;;6.29;60.76
11912;BME280;6016;41.928;25.556;2023-01-25T11:33:17;100326.19;;;5.91;58.33
11912;BME280;6016;41.928;25.556;2023-01-25T11:36:08;100376.66;;;6.30;58.95
11912;BME280;6016;41.928;25.556;2023-01-25T11:38:45;99793.69;;;1.85;61.50
11912;BME280;6016;41.928;25.556;2023-01-25T11:41:19;100306.56;;;5.82;61.27
11912;BME280;6016;41.928;25.556;2023-01-25T11:44:08;100159.63;;;4.50;61.44
11912;BME280;6016;41.928;25.556;2023-01-25T11:46:52;100316.34;;;5.78;59.84
11912;BME280;6016;41.928;25.556;2023-01-25T11:49:34;100380.59;;;6.03;60.47
11912;BME280;6016;41.928;25.556;2023-01-25T11:52:16;100302.66;;;5.73;59.19
11912;BME280;6016;41.928;25.556;2023-01-25T11:54:51;100274.78;;;5.55;59.30
11912;BME280;6016;41.928;25.556;2023-01-25T11:57:33;100350.78;;;5.88;59.40
11912;BME280;6016;41.928;25.556;2023-01-25T12:00:32;100343.09;;;6.03;62.30
11912;BME280;6016;41.928;25.556;2023-01-25T12:03:26;100317.97;;;5.81;62.50
11912;BME280;6016;41.928;25.556;2023-01-25T12:06:03;100327.13;;;5.90;61.29
11912;BME280;6016;41.928;25.556;2023-01-25T12:08:46;100225.03;;;5.21;59.81
11912;BME280;6016;41.928;25.556;2023-01-25T12:11:30;100324.88;;;6.00;58.54
11912;BME280;6016;41.928;25.556;2023-01-25T12:14:08;100325.38;;;6.08;59.67
11912;BME280;6016;41.928;25.556;2023-01-25T12:16:56;100297.94;;;6.15;60.99
11912;BME280;6016;41.928;25.556;2023-01-25T12:19:41;100318.59;;;6.38;59.70
11912;BME280;6016;41.928;25.556;2023-01-25T12:22:40;100295.22;;;6.17;60.35
11912;BME280;6016;41.928;25.556;2023-01-25T12:25:20;100297.19;;;6.29;58.87
11912;BME280;6016;41.928;25.556;2023-01-25T12:28:00;100272.59;;;5.65;60.18
11912;BME280;6016;41.928;25.556;2023-01-25T12:30:39;100290.59;;;6.22;59.43
11912;BME280;6016;41.928;25.556;2023-01-25T12:33:11;100283.38;;;6.10;62.23
11912;BME280;6016;41.928;25.556;2023-01-25T12:35:42;100289.13;;;6.16;59.50
11912;BME280;6016;41.928;25.556;2023-01-25T12:38:14;100290.13;;;6.14;59.90
11912;BME280;6016;41.928;25.556;2023-01-25T12:40:49;100286.03;;;6.26;63.52
11912;BME280;6016;41.928;25.556;2023-01-25T12:43:22;100266.56;;;6.14;60.36
11912;BME280;6016;41.928;25.556;2023-01-25T12:45:52;100257.47;;;6.21;59.14
11912;BME280;6016;41.928;25.556;2023-01-25T12:48:22;100249.91;;;6.15;59.44
11912;BME280;6016;41.928;25.556;2023-01-25T12:50:54;100279.19;;;6.23;60.14
11912;BME280;6016;41.928;25.556;2023-01-25T12:53:23;100275.38;;;6.29;59.09
11912;BME280;6016;41.928;25.556;2023-01-25T12:55:53;100274.63;;;6.43;60.82
11912;BME280;6016;41.928;25.556;2023-01-25T12:58:26;100206.84;;;5.87;58.47
11912;BME280;6016;41.928;25.556;2023-01-25T13:00:58;100278.31;;;6.23;58.18
11912;BME280;6016;41.928;25.556;2023-01-25T13:03:43;100224.50;;;5.83;58.94
11912;BME280;6016;41.928;25.556;2023-01-25T13:06:18;100211.28;;;5.69;60.13
11912;BME280;6016;41.928;25.556;2023-01-25T13:08:54;100225.94;;;5.55;61.96
11912;BME280;6016;41.928;25.556;2023-01-25T13:11:30;100282.56;;;6.25;62.82
11912;BME280;6016;41.928;25.556;2023-01-25T13:14:18;100286.88;;;6.26;57.46
11912;BME280;6016;41.928;25.556;2023-01-25T13:16:51;100286.03;;;6.26;59.06